SBOSBO SOF / LBSF
Speedbird OnlineSpeedbird Online SOF / LBSF

Sofia Airport
11:41 31°C

Location Sofia, Bulgaria
Latitude: 42.696693420410156
Longitude: 23.411436080932617
Local Time 11:42 on 18 Jul 2024
UTC +3 hours (Europe/Sofia)
Currency £1 equals BGN 2.33
METAR LBSF 180830Z VRB02KT CAVOK 31/17 Q1019 NOSIG
TAF TAF LBSF 180500Z 1806/1906 VRB04KT CAVOK BECMG 1809/1811 06010KT PROB40 TEMPO 1811/1816 5000 TSRA FEW030CB BKN050 BECMG 1818/1820 VRB04KT
Weather As Of 18 Jul 2024 11:40
Description Clear sky
Wind 4 km/h from North (0°)
Cloud Cover 0%
Precipitation Rain: none, Snow: none
Sunrise 06:04
Sunset 21:00
NOTAM 13 active NOTAM
Rotations During the last 90 days there were
66 flights from LHR
66 flights to LHR
Lounges Aspire Lounge, Terminal 2
Web Airport Website | Wikipedia
Codes IATA: SOF
ICAO: LBSF
Altitude 531 Meter / 1742 Feet
Distance 2,004 KM / 1,245 Miles
from London.
Runways
RunwayLength (m)Surface
093600Asphalt
273600Asphalt
Radio
TypeDescriptionFrequency
APPAPP123.7
ATISATIS124.05
TWRTWR118.1
Live ATC



Support Speedbird Online

© 2017-2024 Speedbird Online